Terminal Aerodrome Forecast
Issued by NWS

Current Version | Previous Version | Graphics & Text | Print | Product List | Glossary On
Versions: 1 2 3 4 5 6 7 8 9 10 11 12 13 14 15 16 17 18 19 20 21 22 23 24 25 26
000
FTUS41 KPBZ 271122
TAFMGW
TAF
KMGW 271122Z 2712/2812 17006KT P6SM SCT250
     FM271700 19011G23KT P6SM BKN150
     FM272100 22009KT 5SM -SHRA VCTS BKN060CB
     FM280100 21006KT P6SM BKN060
     FM280800 24003KT P6SM BKN020=

USA.gov is the U.S. government's official web portal to all federal, state and local government web resources and services.